createdAt,value
2023-03-07T00:03:02.525Z,88.73
2023-03-07T00:07:04.166Z,88.52
2023-03-07T00:11:08.320Z,88.26
2023-03-07T00:15:10.964Z,88.34
2023-03-07T00:19:12.657Z,88.29
2023-03-07T00:23:14.210Z,88.93
2023-03-07T00:27:15.840Z,89.72
2023-03-07T00:31:18.267Z,91.07
2023-03-07T00:35:19.919Z,93.56
2023-03-07T00:39:21.583Z,96.43
2023-03-07T00:43:23.304Z,100.00
2023-03-07T00:47:24.881Z,100.00
2023-03-07T00:51:26.639Z,100.00
2023-03-07T00:55:28.435Z,100.00
2023-03-07T00:59:30.022Z,100.00
2023-03-07T01:03:32.318Z,100.00
2023-03-07T01:07:34.875Z,100.00
2023-03-07T01:11:37.715Z,100.00
2023-03-07T01:15:39.619Z,100.00
2023-03-07T01:19:41.309Z,100.00
2023-03-07T01:23:43.083Z,100.00
2023-03-07T01:27:45.944Z,100.00
2023-03-07T01:31:47.772Z,100.00
2023-03-07T01:35:49.905Z,100.00
2023-03-07T01:39:52.814Z,100.00
2023-03-07T01:43:55.411Z,100.00
2023-03-07T01:47:57.117Z,100.00
2023-03-07T01:52:05.493Z,100.00
2023-03-07T01:56:09.246Z,100.00
2023-03-07T02:00:18.690Z,100.00
2023-03-07T02:04:30.061Z,100.00
2023-03-07T03:15:45.132Z,100.00
2023-03-07T03:19:47.228Z,100.00
2023-03-07T03:23:48.839Z,100.00
2023-03-07T03:27:50.987Z,100.00
2023-03-07T03:31:53.109Z,100.00
2023-03-07T03:35:57.420Z,100.00
2023-03-07T03:39:59.268Z,100.00
2023-03-07T03:44:00.830Z,100.00
2023-03-07T03:48:07.393Z,100.00
2023-03-07T03:52:09.584Z,100.00
2023-03-07T03:56:16.634Z,100.00
2023-03-07T04:00:21.124Z,100.00
2023-03-07T04:04:23.221Z,100.00
2023-03-07T04:08:24.824Z,100.00
2023-03-07T04:12:26.939Z,100.00
2023-03-07T04:16:28.766Z,100.00
2023-03-07T04:20:30.414Z,100.00
2023-03-07T04:24:32.103Z,100.00
2023-03-07T04:28:45.391Z,100.00
2023-03-07T04:32:52.027Z,100.00
2023-03-07T04:36:53.654Z,100.00
2023-03-07T04:40:55.249Z,100.00
2023-03-07T04:44:57.081Z,100.00
2023-03-07T04:49:00.048Z,100.00
2023-03-07T04:53:01.890Z,100.00
2023-03-07T04:57:04.046Z,100.00
2023-03-07T05:01:06.270Z,100.00
2023-03-07T05:05:08.174Z,100.00
2023-03-07T05:09:10.496Z,100.00
2023-03-07T05:13:12.394Z,100.00
2023-03-07T05:17:15.541Z,100.00
2023-03-07T05:21:17.247Z,100.00
2023-03-07T05:25:19.774Z,100.00
2023-03-07T05:29:22.157Z,100.00
2023-03-07T05:33:23.712Z,100.00
2023-03-07T05:37:25.395Z,100.00
2023-03-07T05:41:27.169Z,100.00
2023-03-07T05:45:29.206Z,100.00
2023-03-07T05:49:31.216Z,100.00
2023-03-07T05:53:33.321Z,100.00
2023-03-07T05:57:35.052Z,100.00
2023-03-07T06:01:36.829Z,100.00
2023-03-07T06:05:39.291Z,100.00
2023-03-07T06:09:41.102Z,100.00
2023-03-07T06:13:43.729Z,100.00
2023-03-07T06:17:46.374Z,100.00
2023-03-07T06:21:48.155Z,100.00
2023-03-07T06:25:49.923Z,100.00
2023-03-07T06:29:52.116Z,100.00
2023-03-07T06:33:56.024Z,100.00
2023-03-07T06:37:58.944Z,100.00
2023-03-07T06:42:00.648Z,100.00
2023-03-07T06:46:04.722Z,100.00
2023-03-07T06:50:10.405Z,100.00
2023-03-07T06:54:12.901Z,100.00
2023-03-07T06:58:14.915Z,100.00
2023-03-07T07:02:17.838Z,100.00
2023-03-07T07:06:20.186Z,100.00
2023-03-07T07:10:23.528Z,100.00
2023-03-07T07:14:25.743Z,100.00
2023-03-07T07:18:27.513Z,100.00
2023-03-07T07:22:30.682Z,100.00
2023-03-07T07:26:35.175Z,100.00
2023-03-07T07:30:37.258Z,100.00
2023-03-07T07:34:41.692Z,100.00
2023-03-07T07:38:43.353Z,100.00
2023-03-07T07:42:48.794Z,100.00
2023-03-07T07:47:00.699Z,100.00
2023-03-07T07:51:03.905Z,99.62
2023-03-07T07:55:06.679Z,98.75
2023-03-07T08:03:17.356Z,95.33
2023-03-07T08:07:19.019Z,92.92
2023-03-07T08:11:21.524Z,92.21
2023-03-07T08:15:23.651Z,90.75
2023-03-07T08:19:25.678Z,89.80
2023-03-07T08:23:27.322Z,88.38
2023-03-07T08:27:31.989Z,88.58
2023-03-07T08:31:33.751Z,87.13
2023-03-07T08:35:39.749Z,86.18
2023-03-07T08:39:41.404Z,84.94
2023-03-07T08:43:43.681Z,83.56
2023-03-07T08:47:46.649Z,83.02
2023-03-07T08:51:48.279Z,83.03
2023-03-07T08:55:50.583Z,81.65
2023-03-07T08:59:53.647Z,82.31
2023-03-07T09:03:55.695Z,80.81
2023-03-07T09:07:58.311Z,79.10
2023-03-07T09:11:59.883Z,79.12
2023-03-07T09:16:05.118Z,75.03
2023-03-07T09:20:07.796Z,74.09
2023-03-07T09:24:10.660Z,70.44
2023-03-07T09:28:12.242Z,72.76
2023-03-07T09:32:13.930Z,71.46
2023-03-07T09:36:18.645Z,69.55
2023-03-07T09:40:28.190Z,68.58
2023-03-07T09:45:27.344Z,67.06
2023-03-07T09:49:46.408Z,68.16
2023-03-07T09:54:01.610Z,66.87
2023-03-07T09:58:09.626Z,64.68
2023-03-07T10:02:51.438Z,64.47
2023-03-07T10:06:59.417Z,61.17
2023-03-07T10:11:03.627Z,61.65
2023-03-07T10:15:31.442Z,59.25
2023-03-07T10:19:46.610Z,60.21
2023-03-07T10:24:11.495Z,59.21
2023-03-07T10:28:23.170Z,56.94
2023-03-07T10:32:26.119Z,57.81
2023-03-07T10:36:44.807Z,56.60
2023-03-07T10:41:01.813Z,56.47
2023-03-07T10:45:03.684Z,56.60
2023-03-07T10:49:20.226Z,56.76
2023-03-07T10:53:35.652Z,57.13
2023-03-07T10:57:38.292Z,57.56
2023-03-07T11:01:54.455Z,56.06
2023-03-07T11:05:56.139Z,56.79
2023-03-07T11:10:00.537Z,56.79
2023-03-07T11:14:15.412Z,56.38
2023-03-07T11:18:37.611Z,55.30
2023-03-07T11:22:41.591Z,54.06
2023-03-07T11:26:43.241Z,52.03
2023-03-07T11:31:04.742Z,51.20
2023-03-07T11:35:14.001Z,49.17
2023-03-07T11:39:33.481Z,48.29
2023-03-07T11:43:54.479Z,46.84
2023-03-07T11:47:56.452Z,47.66
2023-03-07T11:52:07.933Z,47.28
2023-03-07T11:56:29.583Z,48.06
2023-03-07T12:01:02.604Z,47.77
2023-03-07T12:05:15.681Z,49.23
2023-03-07T12:09:31.176Z,50.29
2023-03-07T12:14:23.592Z,50.39
2023-03-07T12:18:43.972Z,50.53
2023-03-07T12:23:08.589Z,50.48
2023-03-07T12:27:21.598Z,51.02
2023-03-07T12:31:28.298Z,52.57
2023-03-07T12:35:48.497Z,52.74
2023-03-07T12:40:00.956Z,53.59
2023-03-07T12:44:12.689Z,54.83
2023-03-07T12:49:08.641Z,55.45
2023-03-07T12:53:16.508Z,55.52
2023-03-07T12:57:20.508Z,55.59
2023-03-07T13:01:32.380Z,55.81
2023-03-07T13:05:37.398Z,55.99
2023-03-07T13:09:47.483Z,56.67
2023-03-07T13:13:59.597Z,57.16
2023-03-07T13:18:01.560Z,58.04
2023-03-07T13:22:24.721Z,59.14
2023-03-07T13:26:26.387Z,59.59
2023-03-07T13:30:30.203Z,60.32
2023-03-07T13:34:46.619Z,60.34
2023-03-07T13:38:48.309Z,60.38
2023-03-07T13:42:49.994Z,60.62
2023-03-07T13:46:54.570Z,60.74
2023-03-07T13:50:59.564Z,60.47
2023-03-07T13:55:05.444Z,60.56
2023-03-07T13:59:09.989Z,60.60
2023-03-07T14:03:27.559Z,61.28
2023-03-07T14:07:40.446Z,61.83
2023-03-07T14:12:02.778Z,61.48
2023-03-07T14:16:29.750Z,61.02
2023-03-07T14:21:02.569Z,61.40
2023-03-07T14:25:23.013Z,61.97
2023-03-07T14:29:27.586Z,62.19
2023-03-07T14:33:31.563Z,61.65
2023-03-07T14:37:33.411Z,61.54
2023-03-07T14:42:04.700Z,61.44
2023-03-07T14:46:51.994Z,61.44
2023-03-07T14:50:54.358Z,61.62
2023-03-07T14:55:04.197Z,60.95
2023-03-07T14:59:12.437Z,61.11
2023-03-07T15:03:20.896Z,62.15
2023-03-07T15:07:24.618Z,62.62
2023-03-07T15:11:36.907Z,63.42
2023-03-07T15:16:03.674Z,64.42
2023-03-07T15:20:30.480Z,66.00
2023-03-07T15:24:43.315Z,67.24
2023-03-07T15:28:45.536Z,68.77
2023-03-07T15:32:47.662Z,70.24
2023-03-07T15:36:49.246Z,70.00
2023-03-07T15:40:53.214Z,71.11
2023-03-07T15:44:56.598Z,72.39
2023-03-07T15:49:07.534Z,72.43
2023-03-07T15:53:25.280Z,74.33
2023-03-07T15:57:34.373Z,73.68
2023-03-07T16:01:36.009Z,74.20
2023-03-07T16:05:39.549Z,74.54
2023-03-07T16:09:41.071Z,74.76
2023-03-07T16:13:44.779Z,75.32
2023-03-07T16:17:52.192Z,74.76
2023-03-07T16:21:54.212Z,75.45
2023-03-07T16:25:55.828Z,76.18
2023-03-07T16:29:58.512Z,77.34
2023-03-07T16:34:00.646Z,77.00
2023-03-07T16:38:02.334Z,77.46
2023-03-07T16:42:04.487Z,77.94
2023-03-07T16:46:12.054Z,78.32
2023-03-07T16:50:16.132Z,78.13
2023-03-07T16:54:18.040Z,78.77
2023-03-07T16:58:29.416Z,78.85
2023-03-07T17:02:31.535Z,78.43
2023-03-07T17:06:39.140Z,78.52
2023-03-07T17:10:42.609Z,78.12
2023-03-07T17:14:45.958Z,77.68
2023-03-07T17:18:47.772Z,77.23
2023-03-07T17:22:52.067Z,76.60
2023-03-07T17:26:55.471Z,76.19
2023-03-07T17:30:58.535Z,76.15
2023-03-07T17:35:00.122Z,76.09
2023-03-07T17:39:01.692Z,75.57
2023-03-07T17:43:04.454Z,75.20
2023-03-07T17:47:09.488Z,74.93
2023-03-07T17:51:11.444Z,74.61
2023-03-07T17:55:16.479Z,74.42
2023-03-07T17:59:18.074Z,74.07
2023-03-07T18:03:19.686Z,73.84
2023-03-07T18:07:23.479Z,73.74
2023-03-07T18:11:25.468Z,73.49
2023-03-07T18:15:27.851Z,73.22
2023-03-07T18:19:29.430Z,72.98
2023-03-07T18:23:32.365Z,72.68
2023-03-07T18:27:34.070Z,72.02
2023-03-07T18:31:36.477Z,71.94
2023-03-07T18:35:38.271Z,71.60
2023-03-07T18:39:41.457Z,71.55
2023-03-07T18:43:43.535Z,71.05
2023-03-07T18:47:45.109Z,70.79
2023-03-07T18:51:48.497Z,69.94
2023-03-07T18:55:50.130Z,70.25
2023-03-07T18:59:51.902Z,69.84
2023-03-07T19:03:55.450Z,69.72
2023-03-07T19:07:57.933Z,69.42
2023-03-07T19:11:59.487Z,69.12
2023-03-07T19:16:11.648Z,69.25
2023-03-07T19:20:14.265Z,68.82
2023-03-07T19:24:15.877Z,69.33
2023-03-07T19:28:19.127Z,69.00
2023-03-07T19:32:20.674Z,69.45
2023-03-07T19:36:27.022Z,69.35
2023-03-07T19:40:28.835Z,69.47
2023-03-07T19:44:30.522Z,69.40
2023-03-07T19:48:32.705Z,69.31
2023-03-07T19:52:34.679Z,69.52
2023-03-07T19:56:38.465Z,69.16
2023-03-07T20:00:46.477Z,69.08
2023-03-07T20:04:48.626Z,68.83
2023-03-07T20:08:52.417Z,68.52
2023-03-07T20:12:54.653Z,68.22
2023-03-07T20:16:56.196Z,68.16
2023-03-07T20:21:02.957Z,68.08
2023-03-07T20:25:05.299Z,68.36
2023-03-07T20:29:09.573Z,68.46
2023-03-07T20:33:12.437Z,68.42
2023-03-07T20:37:14.052Z,68.59
2023-03-07T20:41:17.983Z,68.35
2023-03-07T20:45:19.746Z,68.44
2023-03-07T20:49:21.446Z,68.50
2023-03-07T20:53:23.406Z,68.70
2023-03-07T20:57:25.037Z,68.58
2023-03-07T21:01:29.058Z,68.29
2023-03-07T21:05:30.644Z,68.06
2023-03-07T21:09:32.172Z,67.77
2023-03-07T21:13:37.552Z,67.32
2023-03-07T21:17:39.783Z,67.55
2023-03-07T21:21:41.560Z,67.14
2023-03-07T21:25:45.106Z,67.13
2023-03-07T21:29:46.582Z,66.77
2023-03-07T21:33:52.658Z,66.56
2023-03-07T21:37:54.290Z,66.28
2023-03-07T21:41:56.045Z,66.63
2023-03-07T21:45:58.352Z,66.65
2023-03-07T21:49:59.927Z,66.54
2023-03-07T21:54:01.513Z,66.20
2023-03-07T21:58:03.954Z,65.72
2023-03-07T22:02:05.613Z,65.40
2023-03-07T22:06:09.419Z,65.06
2023-03-07T22:10:11.411Z,64.99
2023-03-07T22:14:13.255Z,65.03
2023-03-07T22:18:14.934Z,65.06
2023-03-07T22:22:19.951Z,64.57
2023-03-07T22:26:21.576Z,64.95
2023-03-07T22:30:23.203Z,65.03
2023-03-07T22:34:24.848Z,65.03
2023-03-07T22:38:26.581Z,65.24
2023-03-07T22:42:28.153Z,65.68
2023-03-07T22:46:29.774Z,65.61
2023-03-07T22:50:31.489Z,65.52
2023-03-07T22:54:33.589Z,65.66
2023-03-07T22:58:35.749Z,65.61
2023-03-07T23:02:37.419Z,65.73
2023-03-07T23:06:39.868Z,68.25
2023-03-07T23:10:41.466Z,71.41
2023-03-07T23:14:43.306Z,72.49
2023-03-07T23:18:46.064Z,76.27
2023-03-07T23:22:47.788Z,77.86
2023-03-07T23:26:49.346Z,80.19
2023-03-07T23:30:51.593Z,82.79
2023-03-07T23:34:53.201Z,84.18
2023-03-07T23:38:55.663Z,86.64
2023-03-07T23:42:58.215Z,87.46
2023-03-07T23:46:59.854Z,88.66
2023-03-07T23:51:01.519Z,89.67
2023-03-07T23:55:03.691Z,89.25
2023-03-07T23:59:05.253Z,90.00
